Time;durP1;ratioP1;P1;durP2;ratioP2;P2;SDS_P1;SDS_P2;PMS_P1;PMS_P2;Temp;Humidity;BMP_temperature;BMP_pressure;BME280_temperature;BME280_humidity;BME280_pressure;Samples;Min_cycle;Max_cycle;Signal;HPM_P1;HPM_P2
2021/03/20 00:01:33;;;;;;;109.28;60.15;;;;;;;;;;4969269;28;20040;-51
2021/03/20 00:04:00;;;;;;;104.10;56.58;;;;;;;;;;4968425;28;20026;-50
2021/03/20 00:06:31;;;;;;;107.00;56.83;;;;;;;;;;4966570;28;20426;-49
2021/03/20 00:09:00;;;;;;;127.18;64.80;;;;;;;;;;4970814;28;20100;-52
2021/03/20 00:11:26;;;;;;;129.13;63.35;;;;;;;;;;4971742;28;20045;-56
2021/03/20 00:13:52;;;;;;;113.03;58.97;;;;;;;;;;4973245;28;20022;-53
2021/03/20 00:16:18;;;;;;;124.85;63.08;;;;;;;;;;4973281;28;20030;-47
2021/03/20 00:18:45;;;;;;;110.13;57.33;;;;;;;;;;4973537;28;20053;-52
2021/03/20 00:21:12;;;;;;;121.78;61.40;;;;;;;;;;4973260;28;20057;-54
2021/03/20 00:23:38;;;;;;;109.05;56.90;;;;;;;;;;4972978;28;20081;-50
2021/03/20 00:26:04;;;;;;;105.65;56.83;;;;;;;;;;4972749;28;20185;-51
2021/03/20 00:28:33;;;;;;;96.38;52.45;;;;;;;;;;4972672;28;20033;-58
2021/03/20 00:31:01;;;;;;;101.57;52.70;;;;;;;;;;4972561;28;20049;-52
2021/03/20 00:33:28;;;;;;;100.63;53.10;;;;;;;;;;4972653;28;20057;-55
2021/03/20 00:35:55;;;;;;;108.80;57.15;;;;;;;;;;4972686;28;20482;-51
2021/03/20 00:38:21;;;;;;;110.57;56.10;;;;;;;;;;4972433;28;20121;-48
2021/03/20 00:40:47;;;;;;;117.40;58.05;;;;;;;;;;4973052;28;20050;-56
2021/03/20 00:43:13;;;;;;;117.63;59.20;;;;;;;;;;4972796;28;20062;-56
2021/03/20 00:45:40;;;;;;;113.10;57.35;;;;;;;;;;4972366;28;20184;-55
2021/03/20 00:48:13;;;;;;;122.35;61.45;;;;;;;;;;4972729;28;20034;-52
2021/03/20 00:50:40;;;;;;;137.32;66.63;;;;;;;;;;4972516;28;20022;-56
2021/03/20 00:53:06;;;;;;;175.25;83.28;;;;;;;;;;4972581;28;20026;-56
2021/03/20 00:55:32;;;;;;;149.52;76.05;;;;;;;;;;4971918;28;20090;-51
2021/03/20 00:57:58;;;;;;;127.45;64.72;;;;;;;;;;4972590;28;20437;-55
2021/03/20 01:00:27;;;;;;;131.90;68.20;;;;;;;;;;4972151;28;20030;-51
2021/03/20 01:02:53;;;;;;;132.00;68.00;;;;;;;;;;4972441;28;20121;-57
2021/03/20 01:05:19;;;;;;;128.27;65.47;;;;;;;;;;4981288;28;20097;-55
2021/03/20 01:07:45;;;;;;;125.72;61.88;;;;;;;;;;4996631;28;20101;-52
2021/03/20 01:10:22;;;;;;;119.05;59.80;;;;;;;;;;4996437;28;20033;-55
2021/03/20 01:12:48;;;;;;;116.88;61.35;;;;;;;;;;4996667;28;20048;-52
2021/03/20 01:15:15;;;;;;;110.45;61.45;;;;;;;;;;4995220;28;20383;-54
2021/03/20 01:17:41;;;;;;;120.88;64.13;;;;;;;;;;4996381;28;20022;-56
2021/03/20 01:20:08;;;;;;;122.57;63.58;;;;;;;;;;4995767;28;20424;-57
2021/03/20 01:22:34;;;;;;;122.80;62.67;;;;;;;;;;4996259;28;20076;-56
2021/03/20 01:25:00;;;;;;;117.18;61.65;;;;;;;;;;4996154;28;20019;-54
2021/03/20 01:27:28;;;;;;;111.85;60.50;;;;;;;;;;4995187;28;20061;-48
2021/03/20 01:29:54;;;;;;;123.15;61.83;;;;;;;;;;4996182;28;20406;-56
2021/03/20 01:32:20;;;;;;;122.20;62.28;;;;;;;;;;4996128;28;20026;-56
2021/03/20 01:34:46;;;;;;;120.55;65.80;;;;;;;;;;4996312;28;20022;-54
2021/03/20 01:37:13;;;;;;;137.27;65.90;;;;;;;;;;4996175;28;20026;-56
2021/03/20 01:39:39;;;;;;;126.65;66.22;;;;;;;;;;4995666;28;20078;-57
2021/03/20 01:42:06;;;;;;;131.98;67.40;;;;;;;;;;4995996;28;20042;-53
2021/03/20 01:44:32;;;;;;;137.80;71.47;;;;;;;;;;4996030;28;20033;-56
2021/03/20 01:46:58;;;;;;;153.55;78.93;;;;;;;;;;4995903;28;20026;-55
2021/03/20 01:49:33;;;;;;;164.90;84.95;;;;;;;;;;4995946;28;20379;-53
2021/03/20 01:52:19;;;;;;;146.77;78.15;;;;;;;;;;4995812;28;20422;-56
2021/03/20 01:54:48;;;;;;;165.10;84.13;;;;;;;;;;4995881;28;20045;-55
2021/03/20 01:57:18;;;;;;;143.85;72.43;;;;;;;;;;4995894;28;20026;-56
2021/03/20 01:59:45;;;;;;;144.80;74.97;;;;;;;;;;4995653;28;20033;-56
2021/03/20 02:02:11;;;;;;;149.93;78.07;;;;;;;;;;4995528;28;20035;-53
2021/03/20 02:04:37;;;;;;;144.00;76.13;;;;;;;;;;4995690;28;20054;-47
2021/03/20 02:07:03;;;;;;;149.90;76.30;;;;;;;;;;4995767;28;20394;-56
2021/03/20 02:09:29;;;;;;;154.63;74.80;;;;;;;;;;4995646;28;20081;-57
2021/03/20 02:12:13;;;;;;;162.25;81.47;;;;;;;;;;4995352;28;20030;-55
2021/03/20 02:15:00;;;;;;;383.73;146.20;;;;;;;;;;4995381;28;20029;-54
2021/03/20 02:17:31;;;;;;;376.55;146.00;;;;;;;;;;4994508;28;20453;-54
2021/03/20 02:20:16;;;;;;;221.80;98.88;;;;;;;;;;4995124;28;20509;-56
2021/03/20 02:22:54;;;;;;;158.38;78.05;;;;;;;;;;4995132;28;20039;-54
2021/03/20 02:25:26;;;;;;;152.80;71.93;;;;;;;;;;4994178;28;20109;-55
2021/03/20 02:28:07;;;;;;;160.93;80.85;;;;;;;;;;4994900;28;20121;-56
2021/03/20 02:30:33;;;;;;;;;;;;;;;;;;4995139;28;20034;-43
2021/03/20 02:32:59;;;;;;;198.75;89.78;;;;;;;;;;5010153;28;19917;-55
2021/03/20 02:36:04;;;;;;;225.70;107.55;;;;;;;;;;4995317;28;20097;-54
2021/03/20 02:38:39;;;;;;;188.43;90.80;;;;;;;;;;4992619;28;20405;-55
2021/03/20 02:41:34;;;;;;;453.70;227.02;;;;;;;;;;4992646;28;20112;-50
2021/03/20 02:44:05;;;;;;;421.35;169.02;;;;;;;;;;4934898;29;20039;-54
2021/03/20 02:46:42;;;;;;;527.70;194.20;;;;;;;;;;4934885;29;20027;-55
2021/03/20 02:49:13;;;;;;;219.18;106.40;;;;;;;;;;4934958;29;20043;-53
2021/03/20 02:51:43;;;;;;;162.63;83.88;;;;;;;;;;4934611;29;20038;-54
2021/03/20 02:54:25;;;;;;;146.23;74.85;;;;;;;;;;4934925;29;20044;-55
2021/03/20 02:56:51;;;;;;;;;;;;;;;;;;4935187;29;20036;-54
2021/03/20 02:59:19;;;;;;;172.45;82.60;;;;;;;;;;4933416;29;19910;-55
2021/03/20 03:01:47;;;;;;;167.15;77.40;;;;;;;;;;4933543;29;20054;-57
2021/03/20 03:04:15;;;;;;;194.02;88.13;;;;;;;;;;4934516;29;20551;-57
2021/03/20 03:07:20;;;;;;;217.18;96.25;;;;;;;;;;4934391;29;20035;-55
2021/03/20 03:09:50;;;;;;;240.27;103.55;;;;;;;;;;4851450;29;20505;-56
2021/03/20 03:12:27;;;;;;;234.55;101.75;;;;;;;;;;4840827;29;20033;-46
2021/03/20 03:14:56;;;;;;;281.88;118.90;;;;;;;;;;4841271;29;20052;-50
2021/03/20 03:17:24;;;;;;;211.75;100.05;;;;;;;;;;4840959;29;20034;-58
2021/03/20 03:19:54;;;;;;;200.57;95.32;;;;;;;;;;4861276;29;20116;-55
2021/03/20 03:22:33;;;;;;;171.27;87.07;;;;;;;;;;4915119;29;20056;-57
2021/03/20 03:25:01;;;;;;;168.10;82.68;;;;;;;;;;4915213;29;20028;-56
2021/03/20 03:27:29;;;;;;;147.90;73.63;;;;;;;;;;4915329;29;20525;-56
2021/03/20 03:29:55;;;;;;;140.40;70.07;;;;;;;;;;4915158;29;20036;-56
2021/03/20 03:32:24;;;;;;;121.97;62.15;;;;;;;;;;4915054;29;20099;-55
2021/03/20 03:34:53;;;;;;;117.47;60.85;;;;;;;;;;4915035;29;20092;-55
2021/03/20 03:37:28;;;;;;;115.35;61.75;;;;;;;;;;4915185;29;20056;-53
2021/03/20 03:39:59;;;;;;;118.85;64.40;;;;;;;;;;4934169;28;20038;-56
2021/03/20 03:42:26;;;;;;;123.10;65.07;;;;;;;;;;4993007;28;20336;-56
2021/03/20 03:44:53;;;;;;;119.30;62.08;;;;;;;;;;4994037;28;20023;-56
2021/03/20 03:47:25;;;;;;;121.22;66.85;;;;;;;;;;4993896;28;20061;-55
2021/03/20 03:49:51;;;;;;;;;;;;;;;;;;4994326;28;20471;-50
2021/03/20 03:52:17;;;;;;;115.85;62.15;;;;;;;;;;4993863;28;19910;-57
2021/03/20 03:54:43;;;;;;;113.22;61.22;;;;;;;;;;4993822;28;20028;-53
2021/03/20 03:57:28;;;;;;;115.40;62.58;;;;;;;;;;4993673;28;20031;-55
2021/03/20 04:00:08;;;;;;;115.63;60.80;;;;;;;;;;4993790;28;20034;-45
2021/03/20 04:03:04;;;;;;;114.05;60.85;;;;;;;;;;4993439;28;20479;-54
2021/03/20 04:05:50;;;;;;;113.07;63.38;;;;;;;;;;4993921;28;20023;-55
2021/03/20 04:08:33;;;;;;;109.85;60.40;;;;;;;;;;4993703;28;20026;-54
2021/03/20 04:11:25;;;;;;;116.57;61.67;;;;;;;;;;4993869;28;20037;-54
2021/03/20 04:14:18;;;;;;;103.22;58.70;;;;;;;;;;4993039;28;20042;-56
2021/03/20 04:16:57;;;;;;;112.75;60.10;;;;;;;;;;4993337;28;20034;-56
2021/03/20 04:19:32;;;;;;;105.55;57.70;;;;;;;;;;4993867;28;20482;-50
2021/03/20 04:22:02;;;;;;;107.75;59.95;;;;;;;;;;4993569;28;20045;-50
2021/03/20 04:24:37;;;;;;;106.53;58.67;;;;;;;;;;4992262;28;20483;-55
2021/03/20 04:27:09;;;;;;;106.35;58.45;;;;;;;;;;4993403;28;20166;-50
2021/03/20 04:29:53;;;;;;;115.43;61.50;;;;;;;;;;4993281;28;20023;-47
2021/03/20 04:32:25;;;;;;;119.10;63.58;;;;;;;;;;4993671;28;20058;-47
2021/03/20 04:34:52;;;;;;;121.43;64.18;;;;;;;;;;4993365;28;20030;-50
2021/03/20 04:37:20;;;;;;;125.22;67.00;;;;;;;;;;4993359;28;20467;-54
2021/03/20 04:39:48;;;;;;;125.90;66.13;;;;;;;;;;4993177;28;20409;-51
2021/03/20 04:42:18;;;;;;;127.65;64.68;;;;;;;;;;4993688;28;20384;-55
2021/03/20 04:44:45;;;;;;;127.93;67.10;;;;;;;;;;4993449;28;20475;-53
2021/03/20 04:47:15;;;;;;;140.88;72.75;;;;;;;;;;4993620;28;20035;-46
2021/03/20 04:49:44;;;;;;;152.57;78.00;;;;;;;;;;4993198;28;20022;-55
2021/03/20 04:52:19;;;;;;;138.70;73.50;;;;;;;;;;4993437;28;20031;-53
2021/03/20 04:54:46;;;;;;;144.98;73.65;;;;;;;;;;4996465;28;20037;-54
2021/03/20 04:57:18;;;;;;;150.63;78.35;;;;;;;;;;4996977;28;20022;-49
2021/03/20 04:59:48;;;;;;;162.10;81.45;;;;;;;;;;4997045;28;20029;-55
2021/03/20 05:02:35;;;;;;;168.68;81.85;;;;;;;;;;4997042;28;20390;-45
2021/03/20 05:05:05;;;;;;;189.52;87.35;;;;;;;;;;4994721;28;20085;-56
2021/03/20 05:07:32;;;;;;;196.15;91.38;;;;;;;;;;4994698;28;20089;-54
2021/03/20 05:09:59;;;;;;;196.20;92.80;;;;;;;;;;4994382;28;20034;-55
2021/03/20 05:12:29;;;;;;;201.50;94.90;;;;;;;;;;4994593;28;20383;-49
2021/03/20 05:15:00;;;;;;;199.32;95.60;;;;;;;;;;4994543;28;20475;-46
2021/03/20 05:17:26;;;;;;;228.65;108.13;;;;;;;;;;4994551;28;20048;-52
2021/03/20 05:19:53;;;;;;;220.55;102.75;;;;;;;;;;4994367;28;20121;-46
2021/03/20 05:22:27;;;;;;;236.73;109.75;;;;;;;;;;4994407;28;20081;-56
2021/03/20 05:24:56;;;;;;;237.60;109.10;;;;;;;;;;4994267;28;20418;-50
2021/03/20 05:27:25;;;;;;;228.30;107.32;;;;;;;;;;4994237;28;20167;-55
2021/03/20 05:29:51;;;;;;;234.55;106.78;;;;;;;;;;4994022;28;20038;-55
2021/03/20 05:32:22;;;;;;;222.68;107.30;;;;;;;;;;4994249;28;20130;-55
2021/03/20 05:34:48;;;;;;;235.88;112.35;;;;;;;;;;4994026;28;20502;-55
2021/03/20 05:37:20;;;;;;;227.30;112.63;;;;;;;;;;4994301;28;20040;-53
2021/03/20 05:39:47;;;;;;;241.20;120.18;;;;;;;;;;4993888;28;20046;-53
2021/03/20 05:42:22;;;;;;;217.32;116.05;;;;;;;;;;4994887;28;20050;-56
2021/03/20 05:44:57;;;;;;;211.98;110.88;;;;;;;;;;4995994;28;20018;-56
2021/03/20 05:47:23;;;;;;;190.68;101.53;;;;;;;;;;4995832;28;20026;-56
2021/03/20 05:50:08;;;;;;;170.05;92.25;;;;;;;;;;4995960;28;20030;-47
2021/03/20 05:52:52;;;;;;;182.63;102.88;;;;;;;;;;4996000;28;20382;-56
2021/03/20 05:55:51;;;;;;;185.60;98.80;;;;;;;;;;4995976;28;20470;-52
2021/03/20 05:58:27;;;;;;;193.02;105.38;;;;;;;;;;4993576;28;20438;-56
2021/03/20 06:01:13;;;;;;;196.80;105.15;;;;;;;;;;4993720;28;20154;-55
2021/03/20 06:03:48;;;;;;;169.63;97.47;;;;;;;;;;4993499;28;20521;-57
2021/03/20 06:06:29;;;;;;;151.93;88.53;;;;;;;;;;4992640;28;20062;-55
2021/03/20 06:09:07;;;;;;;124.18;79.10;;;;;;;;;;4993455;28;20038;-56
2021/03/20 06:11:36;;;;;;;116.22;73.38;;;;;;;;;;4993449;28;20042;-56
2021/03/20 06:14:22;;;;;;;104.50;68.68;;;;;;;;;;4993343;28;20042;-57
2021/03/20 06:17:07;;;;;;;111.15;71.70;;;;;;;;;;4993338;28;20038;-57
2021/03/20 06:19:46;;;;;;;96.60;67.20;;;;;;;;;;4993570;28;20030;-57
2021/03/20 06:22:31;;;;;;;91.32;64.13;;;;;;;;;;4993472;28;20048;-47
2021/03/20 06:25:02;;;;;;;81.55;58.63;;;;;;;;;;4993447;28;20033;-57
2021/03/20 06:27:33;;;;;;;88.78;63.45;;;;;;;;;;4993078;28;20046;-55
2021/03/20 06:30:04;;;;;;;94.50;66.18;;;;;;;;;;4993150;28;20137;-56
2021/03/20 06:32:35;;;;;;;97.53;69.70;;;;;;;;;;4993097;28;20038;-55
2021/03/20 06:35:07;;;;;;;85.38;61.22;;;;;;;;;;4994900;28;20121;-55
2021/03/20 06:37:35;;;;;;;91.43;62.33;;;;;;;;;;4994899;28;20023;-46
2021/03/20 06:40:04;;;;;;;90.43;64.45;;;;;;;;;;4994620;28;20046;-55
2021/03/20 06:42:33;;;;;;;93.03;63.08;;;;;;;;;;4994736;28;20043;-55
2021/03/20 06:45:07;;;;;;;88.10;58.72;;;;;;;;;;4994953;28;20038;-56
2021/03/20 06:47:35;;;;;;;83.88;59.15;;;;;;;;;;4994760;28;20030;-55
2021/03/20 06:50:04;;;;;;;79.53;61.63;;;;;;;;;;4994867;28;20399;-50
2021/03/20 06:52:34;;;;;;;77.22;56.90;;;;;;;;;;4993504;28;20115;-57
2021/03/20 06:55:25;;;;;;;75.82;54.75;;;;;;;;;;4994745;28;20509;-49
2021/03/20 06:57:52;;;;;;;109.53;70.07;;;;;;;;;;4992343;28;20038;-57
2021/03/20 07:00:32;;;;;;;79.50;62.20;;;;;;;;;;4992475;28;20042;-53
2021/03/20 07:03:16;;;;;;;83.43;71.25;;;;;;;;;;4992446;28;20094;-46
2021/03/20 07:05:52;;;;;;;97.13;87.45;;;;;;;;;;4992412;28;20026;-56
2021/03/20 07:08:36;;;;;;;103.20;93.10;;;;;;;;;;4992122;28;20042;-53
2021/03/20 07:11:03;;;;;;;152.93;130.55;;;;;;;;;;4992480;28;20073;-53
2021/03/20 07:13:46;;;;;;;87.03;55.70;;;;;;;;;;4992259;28;20486;-56
2021/03/20 07:16:17;;;;;;;80.57;51.53;;;;;;;;;;4992418;28;20066;-46
2021/03/20 07:19:12;;;;;;;67.07;46.63;;;;;;;;;;4992385;28;20027;-48
2021/03/20 07:21:40;;;;;;;47.63;36.45;;;;;;;;;;4934268;29;20123;-47
2021/03/20 07:24:15;;;;;;;48.03;36.10;;;;;;;;;;4934407;29;20087;-49
2021/03/20 07:26:54;;;;;;;53.67;39.45;;;;;;;;;;4934013;29;20040;-55
2021/03/20 07:29:39;;;;;;;57.43;37.37;;;;;;;;;;4934041;29;20044;-48
2021/03/20 07:32:05;;;;;;;62.08;42.40;;;;;;;;;;4934056;29;20075;-57
2021/03/20 07:34:33;;;;;;;86.72;53.90;;;;;;;;;;4934180;28;20392;-45
2021/03/20 07:37:13;;;;;;;78.10;48.03;;;;;;;;;;4934025;29;20111;-58
2021/03/20 07:39:39;;;;;;;;;;;;;;;;;;4934308;29;20118;-55
2021/03/20 07:42:07;;;;;;;76.60;49.45;;;;;;;;;;4934385;29;19922;-58
2021/03/20 07:44:55;;;;;;;72.32;47.08;;;;;;;;;;4933906;29;20183;-55
2021/03/20 07:47:22;;;;;;;89.18;55.38;;;;;;;;;;4934079;29;20059;-56
2021/03/20 07:49:49;;;;;;;67.38;43.30;;;;;;;;;;4933817;29;20451;-49
2021/03/20 07:52:24;;;;;;;73.68;46.95;;;;;;;;;;4934040;29;20473;-59
2021/03/20 07:55:02;;;;;;;69.07;42.20;;;;;;;;;;4933815;29;20074;-53
2021/03/20 07:57:28;;;;;;;59.05;36.03;;;;;;;;;;4949218;28;20040;-58
2021/03/20 07:59:54;;;;;;;60.92;36.63;;;;;;;;;;4993737;28;20054;-52
2021/03/20 08:02:32;;;;;;;51.67;32.33;;;;;;;;;;4993758;28;20043;-47
2021/03/20 08:04:58;;;;;;;38.75;27.27;;;;;;;;;;4993768;28;20512;-55
2021/03/20 08:07:30;;;;;;;42.20;28.10;;;;;;;;;;4992370;28;20030;-55
2021/03/20 08:10:07;;;;;;;38.65;25.08;;;;;;;;;;4993539;28;20026;-55
2021/03/20 08:12:33;;;;;;;41.63;26.80;;;;;;;;;;4993708;28;20030;-56
2021/03/20 08:15:02;;;;;;;64.97;38.40;;;;;;;;;;4993677;28;20026;-55
2021/03/20 08:17:28;;;;;;;46.10;29.00;;;;;;;;;;4993709;28;20026;-54
2021/03/20 08:19:54;;;;;;;55.20;32.58;;;;;;;;;;4993737;28;20031;-56
2021/03/20 08:22:35;;;;;;;31.50;21.42;;;;;;;;;;4993556;28;20045;-47
2021/03/20 08:25:18;;;;;;;44.08;25.77;;;;;;;;;;4993577;28;20501;-48
2021/03/20 08:28:03;;;;;;;59.58;38.05;;;;;;;;;;4993446;28;20027;-55
2021/03/20 08:30:35;;;;;;;51.22;32.58;;;;;;;;;;4997430;28;20045;-54
2021/03/20 08:33:15;;;;;;;53.25;32.97;;;;;;;;;;4997278;28;20014;-55
2021/03/20 08:35:55;;;;;;;33.25;21.95;;;;;;;;;;4997439;28;20023;-55
2021/03/20 08:38:27;;;;;;;36.78;23.75;;;;;;;;;;4996983;28;20022;-49
2021/03/20 08:41:12;;;;;;;29.98;20.30;;;;;;;;;;4997292;28;20030;-55
2021/03/20 08:43:54;;;;;;;49.67;31.15;;;;;;;;;;4997030;28;20394;-56
2021/03/20 08:46:29;;;;;;;97.97;52.10;;;;;;;;;;4997226;28;20021;-56
2021/03/20 08:49:10;;;;;;;37.83;24.42;;;;;;;;;;4997077;28;20481;-49
2021/03/20 08:51:55;;;;;;;31.33;21.92;;;;;;;;;;4996846;28;20037;-55
2021/03/20 08:54:40;;;;;;;47.33;30.13;;;;;;;;;;4996788;28;20474;-55
2021/03/20 08:57:12;;;;;;;37.80;23.08;;;;;;;;;;4996889;28;20088;-56
2021/03/20 08:59:57;;;;;;;38.55;24.40;;;;;;;;;;4996698;28;20023;-49
2021/03/20 09:02:23;;;;;;;44.53;27.20;;;;;;;;;;4995748;28;20434;-54
2021/03/20 09:04:52;;;;;;;39.75;25.70;;;;;;;;;;4995325;28;20616;-53
2021/03/20 09:07:24;;;;;;;53.03;31.95;;;;;;;;;;4996936;28;20493;-49
2021/03/20 09:09:55;;;;;;;45.65;28.45;;;;;;;;;;4996674;28;20081;-53
2021/03/20 09:12:21;;;;;;;41.17;23.98;;;;;;;;;;4996582;28;20069;-49
2021/03/20 09:14:47;;;;;;;48.58;29.63;;;;;;;;;;4996408;28;20029;-57
2021/03/20 09:17:23;;;;;;;24.48;16.77;;;;;;;;;;4996431;28;20164;-49
2021/03/20 09:19:54;;;;;;;30.67;19.77;;;;;;;;;;4996282;28;20084;-56
2021/03/20 09:22:24;;;;;;;29.63;20.25;;;;;;;;;;4996379;28;20375;-50
2021/03/20 09:24:52;;;;;;;30.38;19.63;;;;;;;;;;4996475;28;20018;-48
2021/03/20 09:27:37;;;;;;;27.85;17.80;;;;;;;;;;4996391;28;20034;-49
2021/03/20 09:30:14;;;;;;;27.45;18.38;;;;;;;;;;4996389;28;20536;-54
2021/03/20 09:32:49;;;;;;;26.48;17.45;;;;;;;;;;4996364;28;20150;-48
2021/03/20 09:35:25;;;;;;;38.75;24.15;;;;;;;;;;4994723;28;20022;-53
2021/03/20 09:37:52;;;;;;;33.33;21.98;;;;;;;;;;4996139;28;20101;-50
2021/03/20 09:40:37;;;;;;;26.08;18.25;;;;;;;;;;4995973;28;20085;-49
2021/03/20 09:43:36;;;;;;;26.65;18.13;;;;;;;;;;4995869;28;20034;-53
2021/03/20 09:46:20;;;;;;;35.00;21.73;;;;;;;;;;4994269;28;20526;-53
2021/03/20 09:48:46;;;;;;;26.40;16.75;;;;;;;;;;4994113;28;20038;-53
2021/03/20 09:51:31;;;;;;;33.42;19.70;;;;;;;;;;4994584;28;20033;-48
2021/03/20 09:54:17;;;;;;;70.55;41.90;;;;;;;;;;4994754;28;20030;-49
2021/03/20 09:56:43;;;;;;;30.05;19.25;;;;;;;;;;4993997;28;20042;-50
2021/03/20 09:59:09;;;;;;;50.38;30.33;;;;;;;;;;4993814;28;20057;-50
2021/03/20 10:01:43;;;;;;;37.70;22.38;;;;;;;;;;4993753;28;20065;-48
2021/03/20 10:04:15;;;;;;;25.63;18.05;;;;;;;;;;4993684;28;20030;-54
2021/03/20 10:06:41;;;;;;;24.35;17.35;;;;;;;;;;4993649;28;20030;-54
2021/03/20 10:09:10;;;;;;;25.10;17.63;;;;;;;;;;4993481;28;20407;-52
2021/03/20 10:11:40;;;;;;;24.63;16.83;;;;;;;;;;4993451;28;20034;-51
2021/03/20 10:14:25;;;;;;;37.35;22.17;;;;;;;;;;4993088;28;20496;-56
2021/03/20 10:17:07;;;;;;;47.22;27.65;;;;;;;;;;4993371;28;20030;-49
2021/03/20 10:19:35;;;;;;;25.38;16.17;;;;;;;;;;4993406;28;20037;-54
2021/03/20 10:22:06;;;;;;;46.50;22.63;;;;;;;;;;4994316;28;20058;-47
2021/03/20 10:24:33;;;;;;;51.33;29.33;;;;;;;;;;4995189;28;20022;-55
2021/03/20 10:27:02;;;;;;;67.80;43.00;;;;;;;;;;4995386;28;20040;-51
2021/03/20 10:29:38;;;;;;;85.07;48.63;;;;;;;;;;4995188;28;20032;-52
2021/03/20 10:32:19;;;;;;;31.00;20.13;;;;;;;;;;4995014;28;20414;-49
2021/03/20 10:34:47;;;;;;;32.63;22.17;;;;;;;;;;4995001;28;20033;-48
2021/03/20 10:37:16;;;;;;;31.77;19.92;;;;;;;;;;4994831;28;20093;-53
2021/03/20 10:39:47;;;;;;;33.35;19.77;;;;;;;;;;4994631;28;20046;-61
2021/03/20 10:42:13;;;;;;;88.10;48.80;;;;;;;;;;4994808;28;20049;-56
2021/03/20 10:44:41;;;;;;;60.42;35.83;;;;;;;;;;4994695;28;20065;-45
2021/03/20 10:47:07;;;;;;;28.80;18.70;;;;;;;;;;4995006;28;20022;-46
2021/03/20 10:49:37;;;;;;;22.25;15.85;;;;;;;;;;4994848;28;20023;-61
2021/03/20 10:52:03;;;;;;;31.63;19.85;;;;;;;;;;4993868;28;20062;-62
2021/03/20 10:54:40;;;;;;;46.40;28.45;;;;;;;;;;4994587;28;20514;-59
2021/03/20 10:57:08;;;;;;;45.40;24.83;;;;;;;;;;4994764;28;20026;-64
2021/03/20 10:59:36;;;;;;;40.80;22.85;;;;;;;;;;4994496;28;20435;-57
2021/03/20 11:02:29;;;;;;;42.22;27.33;;;;;;;;;;4994539;28;20061;-60
2021/03/20 11:05:10;;;;;;;86.43;44.65;;;;;;;;;;4992484;28;20026;-56
2021/03/20 11:07:45;;;;;;;181.30;87.47;;;;;;;;;;4994517;28;20076;-56
2021/03/20 11:10:11;;;;;;;86.45;47.83;;;;;;;;;;4994690;28;20037;-60
2021/03/20 11:12:40;;;;;;;49.40;22.58;;;;;;;;;;4994253;28;20034;-59
2021/03/20 11:15:06;;;;;;;88.07;49.92;;;;;;;;;;4994190;28;20037;-64
2021/03/20 11:17:34;;;;;;;35.38;19.83;;;;;;;;;;4994123;28;20105;-62
2021/03/20 11:20:02;;;;;;;21.63;14.85;;;;;;;;;;4994168;28;20557;-58
2021/03/20 11:22:29;;;;;;;41.35;25.05;;;;;;;;;;4994205;28;20157;-53
2021/03/20 11:24:57;;;;;;;38.08;21.25;;;;;;;;;;4994140;28;20518;-60
2021/03/20 11:27:25;;;;;;;35.28;20.77;;;;;;;;;;4994128;28;20034;-59
2021/03/20 11:29:57;;;;;;;188.70;95.05;;;;;;;;;;4992719;28;20474;-59
2021/03/20 11:32:26;;;;;;;57.45;30.58;;;;;;;;;;4994072;28;20049;-54
2021/03/20 11:35:10;;;;;;;56.95;27.67;;;;;;;;;;4993954;28;20498;-48
2021/03/20 11:37:37;;;;;;;37.58;18.50;;;;;;;;;;4994131;28;20045;-56
2021/03/20 11:40:05;;;;;;;26.33;15.38;;;;;;;;;;4993699;28;20101;-53
2021/03/20 11:42:38;;;;;;;50.60;25.27;;;;;;;;;;4992784;28;20050;-55
2021/03/20 11:45:16;;;;;;;77.07;34.78;;;;;;;;;;4993742;28;20157;-57
2021/03/20 11:47:47;;;;;;;22.00;13.77;;;;;;;;;;4993899;28;20026;-56
2021/03/20 11:50:15;;;;;;;30.63;15.45;;;;;;;;;;4993755;28;20029;-54
2021/03/20 11:52:47;;;;;;;65.47;25.98;;;;;;;;;;4993777;28;20038;-56
2021/03/20 11:55:17;;;;;;;35.90;17.73;;;;;;;;;;4993813;28;20023;-53
2021/03/20 11:57:43;;;;;;;43.20;19.70;;;;;;;;;;4993883;28;20026;-54
2021/03/20 12:00:28;;;;;;;68.57;25.42;;;;;;;;;;4993693;28;20062;-55
2021/03/20 12:02:54;;;;;;;130.23;40.78;;;;;;;;;;4994072;28;20085;-55
2021/03/20 12:05:27;;;;;;;210.02;57.60;;;;;;;;;;4997572;28;20029;-54
2021/03/20 12:10:29;;;;;;;273.63;75.75;;;;;;;;;;5066702;22;20073;-53
2021/03/20 12:12:56;;;;;;;293.67;84.70;;;;;;;;;;5016918;28;20026;-54
2021/03/20 12:15:25;;;;;;;154.48;46.53;;;;;;;;;;5017200;28;20022;-54
2021/03/20 12:17:51;;;;;;;104.45;32.10;;;;;;;;;;5017280;28;20037;-54
2021/03/20 12:20:26;;;;;;;75.45;26.27;;;;;;;;;;5017079;28;20032;-53
2021/03/20 12:22:54;;;;;;;275.10;73.00;;;;;;;;;;5017238;28;20034;-54
2021/03/20 12:25:20;;;;;;;200.20;59.83;;;;;;;;;;5017078;28;20105;-55
2021/03/20 12:27:48;;;;;;;191.10;54.25;;;;;;;;;;5017004;28;20030;-55
2021/03/20 12:30:17;;;;;;;125.95;38.13;;;;;;;;;;5016789;28;20022;-56
2021/03/20 12:32:47;;;;;;;104.43;33.67;;;;;;;;;;5016789;28;20018;-54
2021/03/20 12:35:19;;;;;;;53.28;20.17;;;;;;;;;;5016770;28;20026;-54
2021/03/20 12:37:47;;;;;;;150.52;46.45;;;;;;;;;;5016701;28;20033;-56
2021/03/20 12:40:14;;;;;;;104.55;32.92;;;;;;;;;;5031844;28;20484;-54
2021/03/20 12:42:40;;;;;;;135.48;37.63;;;;;;;;;;5036206;28;20037;-57
2021/03/20 12:45:07;;;;;;;108.30;32.95;;;;;;;;;;5036316;28;20018;-57
2021/03/20 12:47:33;;;;;;;120.25;44.88;;;;;;;;;;5035051;28;20033;-52
2021/03/20 12:50:00;;;;;;;97.43;35.08;;;;;;;;;;5028652;28;20473;-53
2021/03/20 12:52:26;;;;;;;154.30;66.03;;;;;;;;;;5036247;28;20033;-51
2021/03/20 12:54:56;;;;;;;56.88;27.17;;;;;;;;;;5036325;28;20068;-54
2021/03/20 12:57:30;;;;;;;44.83;23.25;;;;;;;;;;5036106;28;20033;-54
2021/03/20 12:59:57;;;;;;;117.07;57.30;;;;;;;;;;5036009;28;20022;-54
2021/03/20 13:02:23;;;;;;;37.25;18.70;;;;;;;;;;5036336;28;20087;-50
2021/03/20 13:04:50;;;;;;;47.65;23.00;;;;;;;;;;5036025;28;20021;-57
2021/03/20 13:07:17;;;;;;;37.28;18.73;;;;;;;;;;5036156;28;20025;-53
2021/03/20 13:09:43;;;;;;;28.33;16.25;;;;;;;;;;5035314;28;20049;-57
2021/03/20 13:12:11;;;;;;;36.13;21.23;;;;;;;;;;5035975;28;20028;-55
2021/03/20 13:14:37;;;;;;;30.90;18.52;;;;;;;;;;5035331;28;20022;-47
2021/03/20 13:17:04;;;;;;;25.85;16.33;;;;;;;;;;5035952;28;20493;-55
2021/03/20 13:19:33;;;;;;;19.83;13.98;;;;;;;;;;4993693;28;20049;-52
2021/03/20 13:22:00;;;;;;;16.45;12.13;;;;;;;;;;4985728;28;20561;-56
2021/03/20 13:24:29;;;;;;;22.00;12.63;;;;;;;;;;4985432;28;20030;-54
2021/03/20 13:26:55;;;;;;;19.00;12.52;;;;;;;;;;4986016;28;20477;-52
2021/03/20 13:29:21;;;;;;;20.75;14.27;;;;;;;;;;4985600;28;20211;-47
2021/03/20 13:31:47;;;;;;;18.05;12.80;;;;;;;;;;4985663;28;20106;-54
2021/03/20 13:34:13;;;;;;;17.55;13.20;;;;;;;;;;4985856;28;20083;-54
2021/03/20 13:36:40;;;;;;;26.00;16.80;;;;;;;;;;4985377;28;20133;-53
2021/03/20 13:39:07;;;;;;;39.65;26.20;;;;;;;;;;4985820;28;20089;-55
2021/03/20 13:41:33;;;;;;;35.50;22.70;;;;;;;;;;4985452;28;20022;-49
2021/03/20 13:43:59;;;;;;;39.08;24.50;;;;;;;;;;4985121;28;20537;-49
2021/03/20 13:46:25;;;;;;;38.92;23.70;;;;;;;;;;4985219;28;20030;-51
2021/03/20 13:48:52;;;;;;;31.05;20.17;;;;;;;;;;4985459;28;20128;-52
2021/03/20 13:51:20;;;;;;;57.28;31.63;;;;;;;;;;4986109;28;20026;-47
2021/03/20 13:53:47;;;;;;;54.97;31.73;;;;;;;;;;4986422;28;20022;-54
2021/03/20 13:56:14;;;;;;;78.43;42.85;;;;;;;;;;4985096;28;20107;-50
2021/03/20 13:58:40;;;;;;;51.53;26.95;;;;;;;;;;4984865;28;20105;-54
2021/03/20 14:01:07;;;;;;;50.75;28.77;;;;;;;;;;4984898;28;20065;-48
2021/03/20 14:03:33;;;;;;;35.00;21.27;;;;;;;;;;4985054;28;20088;-45
2021/03/20 14:06:00;;;;;;;51.45;27.05;;;;;;;;;;4985180;28;20026;-57
2021/03/20 14:08:26;;;;;;;27.48;16.67;;;;;;;;;;4986248;28;20504;-49
2021/03/20 14:10:54;;;;;;;64.75;37.42;;;;;;;;;;4985413;28;20030;-54
2021/03/20 14:13:21;;;;;;;77.57;42.33;;;;;;;;;;4999112;28;20803;-51
2021/03/20 14:15:49;;;;;;;54.53;28.95;;;;;;;;;;4988186;28;20766;-54
2021/03/20 14:18:17;;;;;;;29.67;17.10;;;;;;;;;;4985914;28;20055;-48
2021/03/20 14:20:44;;;;;;;90.40;51.75;;;;;;;;;;4984309;28;20068;-56
2021/03/20 14:23:14;;;;;;;40.45;26.17;;;;;;;;;;4998925;28;20943;-49
2021/03/20 14:25:41;;;;;;;76.50;43.03;;;;;;;;;;4983856;28;20541;-45
2021/03/20 14:28:08;;;;;;;30.85;19.75;;;;;;;;;;4998913;28;20478;-44
2021/03/20 14:30:41;;;;;;;108.88;59.63;;;;;;;;;;4985266;28;20899;-47
2021/03/20 14:33:08;;;;;;;72.85;39.95;;;;;;;;;;4984255;28;20104;-45
2021/03/20 14:35:34;;;;;;;65.78;36.70;;;;;;;;;;4984344;28;20501;-48
2021/03/20 14:38:01;;;;;;;41.50;25.70;;;;;;;;;;4984212;28;20145;-47
2021/03/20 14:40:30;;;;;;;63.10;36.95;;;;;;;;;;4999819;28;20057;-45